KBDL/BDL METAR and TAF weather

Enter ICAO airport designator
Station Type Date Time Source
KBDL METAR 2018/01/23 00:51 UTC NOAA

KBDL 230051Z 02005KT 2 1/2SM BR OVC009 02/02 A3021 RMK AO2 SFC VIS 3 RAE18 SLP231 P0000 T00220022


Station Type Date Time Source
KBDL Decoded METAR 2018/01/23 00:51 UTC NOAA

BRADLEY INTERNATIONAL AIRPORT , CT, United States (KBDL) 41-56N 072-41W 60M
Jan 22, 2018 - 07:51 PM EST / 2018.01.23 0051 UTC
Wind: from the NNE (020 degrees) at 6 MPH (5 KT):0
Visibility: 2 1/2 mile(s):0
Sky conditions: overcast
Weather: mist
Precipitation last hour: A trace
Temperature: 36.0 F (2.2 C)
Dew Point: 36.0 F (2.2 C)
Relative Humidity: 100%
Pressure (altimeter): 30.21 in. Hg (1023 hPa)
ob: KBDL 230051Z 02005KT 2 1/2SM BR OVC009 02/02 A3021 RMK AO2 SFC VIS 3 RAE18 SLP231 P0000 T00220022
cycle: 1

Station Type Date Time Source
KBDL TAF 2018/01/22 21:06 UTC NOAA

TAF
AMD KBDL 222103Z 2221/2324 02006KT 2SM BR OVC006
FM222300 01003KT 2SM -SHRA OVC003
FM230600 02003KT 2SM BR OVC003 WS020/19040KT
FM231100 VRB03KT 1SM -SHRA OVC003 WS020/19040KT
FM231400 VRB03KT 2SM +RA OVC008 WS020/19045KT
FM231600 18007G18KT 2SM +RA OVC008 WS020/19045KT
FM231900 19012G24KT 3SM -RA OVC010 WS020/20040KT
FM232100 19008G21KT 4SM BR OVC020
FM232300 23007G17KT P6SM BKN040


Example: see airport list